Time;durP1;ratioP1;P1;durP2;ratioP2;P2;SDS_P1;SDS_P2;PMS_P1;PMS_P2;Temp;Humidity;BMP_temperature;BMP_pressure;BME280_temperature;BME280_humidity;BME280_pressure;Samples;Min_cycle;Max_cycle;Signal;HPM_P1;HPM_P2
2022/06/17 00:00:42;;;;;;;9.32;5.20;;;16.70;94.80;;;;;;4179979;28;20037;-85
2022/06/17 00:02:43;;;;;;;9.20;4.70;;;16.60;94.80;;;;;;4179703;28;20048;-85
2022/06/17 00:04:43;;;;;;;11.88;6.47;;;16.60;94.80;;;;;;4180169;28;20067;-85
2022/06/17 00:07:06;;;;;;;7.75;5.15;;;16.50;94.70;;;;;;4180304;28;20040;-85
2022/06/17 00:09:08;;;;;;;8.27;5.18;;;16.50;95.30;;;;;;4180418;28;20037;-84
2022/06/17 00:11:17;;;;;;;7.63;4.82;;;16.50;95.00;;;;;;4178705;28;20052;-84
2022/06/17 00:13:20;;;;;;;9.82;5.93;;;16.50;95.20;;;;;;4180088;28;20077;-84
2022/06/17 00:15:20;;;;;;;9.57;5.28;;;16.40;95.00;;;;;;4179702;28;20087;-85
2022/06/17 00:17:22;;;;;;;10.35;5.28;;;16.40;95.00;;;;;;4179520;28;20490;-84
2022/06/17 00:19:23;;;;;;;6.75;5.03;;;16.30;95.10;;;;;;4180032;28;20489;-84
2022/06/17 00:21:25;;;;;;;11.30;6.03;;;16.30;95.20;;;;;;4180371;28;20106;-85
2022/06/17 00:23:27;;;;;;;8.70;5.28;;;16.20;95.30;;;;;;4182764;28;20053;-85
2022/06/17 00:25:28;;;;;;;8.77;4.82;;;16.20;95.50;;;;;;4166110;28;20552;-85
2022/06/17 00:27:29;;;;;;;10.10;5.85;;;16.20;95.70;;;;;;4184026;28;20044;-84
2022/06/17 00:29:30;;;;;;;9.38;5.65;;;16.20;95.50;;;;;;4183948;28;20052;-85
2022/06/17 00:31:32;;;;;;;9.18;5.35;;;16.20;95.40;;;;;;4184135;28;20033;-85
2022/06/17 00:33:34;;;;;;;12.57;6.43;;;16.20;95.70;;;;;;4185364;28;20093;-85
2022/06/17 00:35:40;;;;;;;11.93;6.68;;;16.10;95.80;;;;;;4184421;28;20126;-85
2022/06/17 00:37:41;;;;;;;19.15;8.75;;;16.10;95.80;;;;;;4184134;28;20075;-85
2022/06/17 00:39:42;;;;;;;11.25;6.65;;;16.10;95.70;;;;;;4183748;28;20045;-85
2022/06/17 00:41:46;;;;;;;14.98;7.63;;;16.20;95.70;;;;;;4183939;28;20049;-85
2022/06/17 00:43:49;;;;;;;14.35;8.50;;;16.20;95.60;;;;;;4184078;28;20049;-85
2022/06/17 00:46:12;;;;;;;11.95;7.50;;;16.20;95.60;;;;;;4184731;28;20051;-85
2022/06/17 00:48:28;;;;;;;11.95;7.15;;;16.20;95.80;;;;;;4184070;28;20048;-85
2022/06/17 00:50:39;;;;;;;11.70;6.85;;;16.20;95.90;;;;;;4184354;28;20099;-85
2022/06/17 00:52:47;;;;;;;16.60;7.47;;;16.20;95.60;;;;;;4183591;28;20049;-85
2022/06/17 00:54:57;;;;;;;14.38;7.60;;;16.20;95.60;;;;;;4183378;28;20041;-85
2022/06/17 00:56:58;;;;;;;11.40;6.35;;;16.20;95.70;;;;;;4183305;28;20048;-85
2022/06/17 00:59:01;;;;;;;11.45;7.20;;;16.20;95.60;;;;;;4183844;28;20036;-84
2022/06/17 01:01:03;;;;;;;12.18;6.43;;;16.20;95.70;;;;;;4182333;28;20128;-85
2022/06/17 01:03:09;;;;;;;9.50;7.32;;;16.10;95.80;;;;;;4183541;28;20077;-85
2022/06/17 01:05:11;;;;;;;11.98;7.50;;;16.10;96.00;;;;;;4183348;28;20090;-84
2022/06/17 01:07:20;;;;;;;11.70;7.25;;;16.10;96.30;;;;;;4181940;28;20086;-84
2022/06/17 01:11:53;;;;;;;14.88;8.38;;;16.10;96.40;;;;;;4182648;28;20060;-85
2022/06/17 01:13:55;;;;;;;13.88;8.52;;;16.10;96.10;;;;;;4181806;28;20045;-85
2022/06/17 01:15:56;;;;;;;14.15;8.10;;;16.10;96.20;;;;;;4182708;28;20115;-84
2022/06/17 01:17:58;;;;;;;10.23;7.25;;;16.00;96.10;;;;;;4182122;28;20040;-85
2022/06/17 01:20:03;;;;;;;13.30;7.70;;;16.00;96.30;;;;;;4182043;28;20037;-84
2022/06/17 01:22:25;;;;;;;13.32;8.43;;;15.90;96.50;;;;;;4182396;28;20566;-85
2022/06/17 01:24:26;;;;;;;12.57;8.13;;;15.90;96.60;;;;;;4181503;28;20067;-84
2022/06/17 01:26:27;;;;;;;13.35;8.15;;;15.90;96.60;;;;;;4181540;28;20049;-85
2022/06/17 01:28:28;;;;;;;12.73;8.15;;;15.90;96.70;;;;;;4181634;28;20143;-85
2022/06/17 01:30:37;;;;;;;13.30;7.63;;;15.80;96.90;;;;;;4188806;28;20037;-85
2022/06/17 01:32:49;;;;;;;14.52;8.00;;;15.80;97.10;;;;;;4197617;28;20044;-85
2022/06/17 01:34:50;;;;;;;11.50;7.63;;;15.70;97.20;;;;;;4197912;28;20404;-85
2022/06/17 01:36:52;;;;;;;13.27;8.00;;;15.70;97.10;;;;;;4180018;28;20059;-84
2022/06/17 01:38:55;;;;;;;12.88;7.65;;;15.70;97.20;;;;;;4196515;28;20049;-84
2022/06/17 01:40:59;;;;;;;13.85;8.38;;;15.70;97.30;;;;;;4197568;28;20048;-84
2022/06/17 01:43:06;;;;;;;14.70;8.82;;;15.70;97.40;;;;;;4197771;28;20089;-85
2022/06/17 01:45:08;;;;;;;12.23;8.38;;;15.70;97.70;;;;;;4197057;28;20094;-84
2022/06/17 01:47:15;;;;;;;13.20;7.90;;;15.70;97.40;;;;;;4197682;28;20044;-84
2022/06/17 01:49:23;;;;;;;16.42;8.10;;;15.60;97.50;;;;;;4197725;28;20045;-85
2022/06/17 01:51:27;;;;;;;12.18;8.30;;;15.60;97.60;;;;;;4197947;28;20036;-84
2022/06/17 01:53:32;;;;;;;15.48;8.45;;;15.60;97.60;;;;;;4197855;28;20054;-84
2022/06/17 01:55:37;;;;;;;12.13;8.00;;;15.60;97.80;;;;;;4198178;28;20174;-84
2022/06/17 01:58:03;;;;;;;12.13;7.22;;;15.50;97.80;;;;;;4182495;28;20056;-84
2022/06/17 02:00:31;;;;;;;16.08;9.40;;;15.50;98.00;;;;;;4181655;28;20041;-84
2022/06/17 02:02:33;;;;;;;12.48;7.57;;;15.50;98.20;;;;;;4180290;28;20136;-84
2022/06/17 02:04:37;;;;;;;12.32;8.35;;;15.50;97.80;;;;;;4181819;28;20733;-84
2022/06/17 02:06:59;;;;;;;12.38;8.52;;;15.50;97.90;;;;;;4181717;28;20098;-86
2022/06/17 02:09:00;;;;;;;13.00;8.73;;;15.50;98.30;;;;;;4181081;28;20047;-84
2022/06/17 02:11:05;;;;;;;14.50;8.45;;;15.40;97.90;;;;;;4180226;28;20073;-84
2022/06/17 02:13:07;;;;;;;15.90;9.05;;;15.50;98.00;;;;;;4181330;28;20078;-84
2022/06/17 02:15:09;;;;;;;15.25;8.48;;;15.40;98.00;;;;;;4181220;28;20057;-84
2022/06/17 02:17:10;;;;;;;16.02;9.10;;;15.40;98.10;;;;;;4181262;28;20520;-84
2022/06/17 02:19:11;;;;;;;12.35;8.05;;;15.40;98.20;;;;;;4180144;28;20398;-84
2022/06/17 02:21:38;;;;;;;11.98;7.70;;;15.40;98.30;;;;;;4181224;28;20044;-85
2022/06/17 02:23:39;;;;;;;15.82;8.23;;;15.40;98.70;;;;;;4180876;28;20490;-84
2022/06/17 02:25:44;;;;;;;17.02;10.02;;;15.30;98.30;;;;;;4181334;28;20037;-84
2022/06/17 02:27:50;;;;;;;14.55;9.10;;;15.30;98.40;;;;;;4179825;28;20060;-84
2022/06/17 02:29:51;;;;;;;15.60;9.02;;;15.00;98.40;;;;;;4181278;28;20103;-84
2022/06/17 02:31:52;;;;;;;13.35;8.40;;;15.20;98.50;;;;;;4180739;28;20036;-84
2022/06/17 02:33:53;;;;;;;12.35;7.68;;;15.30;98.60;;;;;;4181135;28;20101;-85
2022/06/17 02:36:12;;;;;;;15.45;8.88;;;15.20;98.70;;;;;;4180789;28;20041;-84
2022/06/17 02:38:17;;;;;;;11.73;8.15;;;15.20;98.80;;;;;;4181035;28;20048;-84
2022/06/17 02:40:40;;;;;;;15.75;8.77;;;15.20;98.90;;;;;;4180827;28;20041;-84
2022/06/17 02:42:43;;;;;;;13.82;8.05;;;15.10;99.40;;;;;;4179286;28;20080;-85
2022/06/17 02:44:43;;;;;;;12.88;7.82;;;15.10;99.20;;;;;;4180224;28;20037;-85
2022/06/17 02:46:46;;;;;;;11.52;7.68;;;15.10;99.60;;;;;;4180456;28;20484;-85
2022/06/17 02:48:56;;;;;;;13.63;7.07;;;15.10;99.40;;;;;;4180639;28;20492;-85
2022/06/17 02:50:59;;;;;;;9.93;6.63;;;15.00;99.70;;;;;;4179472;28;20048;-85
2022/06/17 02:53:01;;;;;;;11.32;7.25;;;15.00;99.60;;;;;;4180632;28;20111;-85
2022/06/17 02:55:10;;;;;;;11.20;7.75;;;14.90;99.80;;;;;;4180285;28;20045;-84
2022/06/17 02:57:16;;;;;;;;;;;15.00;99.90;;;;;;4181213;28;20091;-85
2022/06/17 02:59:23;;;;;;;9.32;6.93;;;15.00;99.90;;;;;;4179304;28;19920;-84
2022/06/17 03:01:27;;;;;;;13.75;6.55;;;14.90;99.80;;;;;;4180635;28;20052;-84
2022/06/17 03:03:29;;;;;;;16.52;7.43;;;14.90;99.90;;;;;;4180505;28;20086;-84
2022/06/17 03:05:36;;;;;;;11.23;6.55;;;14.90;99.90;;;;;;4180559;28;20119;-84
2022/06/17 03:07:37;;;;;;;12.55;7.30;;;14.80;99.90;;;;;;4180051;28;20045;-85
2022/06/17 03:09:38;;;;;;;10.77;7.03;;;14.80;99.90;;;;;;4180199;28;20045;-85
2022/06/17 03:11:39;;;;;;;12.65;7.80;;;14.80;99.90;;;;;;4180551;28;20048;-84
2022/06/17 03:13:53;;;;;;;10.98;7.50;;;14.70;99.90;;;;;;4180838;28;20107;-85
2022/06/17 03:15:57;;;;;;;12.88;8.20;;;14.70;99.90;;;;;;4180740;28;20401;-85
2022/06/17 03:17:58;;;;;;;11.98;7.65;;;14.70;99.90;;;;;;4181249;28;20041;-85
2022/06/17 03:20:02;;;;;;;12.88;8.05;;;14.80;99.90;;;;;;4182415;28;20049;-85
2022/06/17 03:22:05;;;;;;;13.68;8.70;;;14.70;99.90;;;;;;4181288;28;20049;-85
2022/06/17 03:24:18;;;;;;;14.82;7.85;;;14.80;99.90;;;;;;4180579;28;20052;-85
2022/06/17 03:26:25;;;;;;;13.50;8.65;;;14.80;99.90;;;;;;4180220;28;20056;-85
2022/06/17 03:28:29;;;;;;;11.52;7.60;;;14.80;99.90;;;;;;4181596;28;20049;-84
2022/06/17 03:30:45;;;;;;;14.38;8.77;;;14.90;99.90;;;;;;4180753;28;20123;-84
2022/06/17 03:32:57;;;;;;;12.05;7.93;;;14.90;99.90;;;;;;4180451;28;20103;-84
2022/06/17 03:34:57;;;;;;;16.08;8.43;;;14.90;99.90;;;;;;4180351;28;20037;-84
2022/06/17 03:37:10;;;;;;;12.13;7.68;;;15.00;99.90;;;;;;4180539;28;20055;-84
2022/06/17 03:39:20;;;;;;;14.95;8.23;;;15.00;99.90;;;;;;4180480;28;20191;-84
2022/06/17 03:41:38;;;;;;;13.38;8.35;;;15.00;99.90;;;;;;4179685;28;20060;-84
2022/06/17 03:43:51;;;;;;;12.70;7.57;;;15.10;99.90;;;;;;4180367;28;20053;-84
2022/06/17 03:46:04;;;;;;;15.73;8.10;;;15.10;99.90;;;;;;4180231;28;20057;-84
2022/06/17 03:48:22;;;;;;;12.23;7.63;;;15.10;99.90;;;;;;4180041;28;20056;-84
2022/06/17 03:50:38;;;;;;;13.27;8.18;;;15.10;99.90;;;;;;4180378;28;20080;-84
2022/06/17 03:52:51;;;;;;;14.82;7.93;;;15.10;99.90;;;;;;4178825;28;20053;-84
2022/06/17 03:54:53;;;;;;;13.63;7.10;;;15.10;99.90;;;;;;4179973;28;20130;-84
2022/06/17 03:56:53;;;;;;;12.30;6.60;;;15.10;99.90;;;;;;4185892;28;20052;-84
2022/06/17 03:59:00;;;;;;;14.90;7.97;;;15.10;99.90;;;;;;4197004;28;20039;-85
2022/06/17 04:01:33;;;;;;;13.02;7.32;;;15.10;99.90;;;;;;4189711;28;20036;-84
2022/06/17 04:03:37;;;;;;;19.75;7.60;;;15.10;99.90;;;;;;4187379;28;20197;-84
2022/06/17 04:05:40;;;;;;;9.10;6.50;;;15.10;99.80;;;;;;4188357;28;20052;-85
2022/06/17 04:07:41;;;;;;;13.15;7.60;;;15.10;99.70;;;;;;4183432;28;20060;-84
2022/06/17 04:09:44;;;;;;;11.27;7.35;;;15.10;99.70;;;;;;4183203;28;20479;-84
2022/06/17 04:12:07;;;;;;;12.43;6.57;;;15.20;99.60;;;;;;4183271;28;20063;-84
2022/06/17 04:14:31;;;;;;;10.65;6.13;;;15.20;99.60;;;;;;4175540;28;20049;-84
2022/06/17 04:16:43;;;;;;;8.63;6.07;;;15.20;99.50;;;;;;4182057;28;20456;-84
2022/06/17 04:18:43;;;;;;;10.18;5.95;;;15.20;99.30;;;;;;4199418;28;20041;-84
2022/06/17 04:20:56;;;;;;;12.40;5.90;;;15.30;99.20;;;;;;4199256;28;20459;-84
2022/06/17 04:23:02;;;;;;;10.82;5.82;;;15.30;99.10;;;;;;4199444;28;20047;-84
2022/06/17 04:25:05;;;;;;;8.68;5.55;;;15.30;98.80;;;;;;4200184;28;20070;-85
2022/06/17 04:27:10;;;;;;;10.18;5.43;;;15.40;98.70;;;;;;4199707;28;20040;-85
2022/06/17 04:29:24;;;;;;;8.65;5.50;;;15.40;98.60;;;;;;4199513;28;20558;-85
2022/06/17 04:31:28;;;;;;;7.30;4.55;;;15.40;98.50;;;;;;4199479;28;20049;-85
2022/06/17 04:33:40;;;;;;;8.32;5.03;;;15.50;98.40;;;;;;4198979;28;20123;-85
2022/06/17 04:35:41;;;;;;;8.25;4.93;;;15.50;98.30;;;;;;4197624;28;20049;-85
2022/06/17 04:37:44;;;;;;;9.10;4.75;;;15.50;98.20;;;;;;4181740;28;20123;-84
2022/06/17 04:39:48;;;;;;;8.38;3.78;;;15.60;98.10;;;;;;4194025;28;20048;-85
2022/06/17 04:41:52;;;;;;;6.53;4.03;;;15.60;97.80;;;;;;4188623;28;20123;-85
2022/06/17 04:43:56;;;;;;;6.18;4.03;;;15.50;97.60;;;;;;4182823;28;20090;-84
2022/06/17 04:46:00;;;;;;;9.68;3.90;;;15.70;97.60;;;;;;4194042;28;20041;-84
2022/06/17 04:48:01;;;;;;;7.95;3.80;;;15.70;97.30;;;;;;4199208;28;20076;-83
2022/06/17 04:50:08;;;;;;;10.50;3.63;;;15.80;97.20;;;;;;4198339;28;20102;-84
2022/06/17 04:52:29;;;;;;;8.18;4.47;;;15.80;97.10;;;;;;4199212;28;20048;-84
2022/06/17 04:54:32;;;;;;;6.63;3.70;;;15.90;96.90;;;;;;4198817;28;20044;-83
2022/06/17 04:56:40;;;;;;;4.95;3.72;;;15.90;96.80;;;;;;4199131;28;20520;-84
2022/06/17 04:58:41;;;;;;;10.60;3.88;;;15.90;96.70;;;;;;4182848;28;20049;-84
2022/06/17 05:00:54;;;;;;;6.43;3.45;;;15.90;96.60;;;;;;4182486;28;20052;-84
2022/06/17 05:02:57;;;;;;;7.97;3.85;;;16.00;96.90;;;;;;4181990;28;20548;-85
2022/06/17 05:05:03;;;;;;;6.25;2.85;;;16.00;96.60;;;;;;4182417;28;20410;-84
2022/06/17 05:07:07;;;;;;;;;;;16.00;96.60;;;;;;4182749;28;20051;-84
2022/06/17 05:09:31;;;;;;;21.05;3.78;;;16.10;96.00;;;;;;4182063;28;19948;-84
2022/06/17 05:11:38;;;;;;;4.65;2.63;;;16.10;96.20;;;;;;4180731;28;20048;-84
2022/06/17 05:14:02;;;;;;;8.80;3.08;;;16.10;96.00;;;;;;4180842;28;20064;-84
2022/06/17 05:16:03;;;;;;;4.40;2.53;;;16.10;95.70;;;;;;4182094;28;20075;-84
2022/06/17 05:18:04;;;;;;;4.07;2.78;;;16.20;95.70;;;;;;4182305;28;20083;-84
2022/06/17 05:20:13;;;;;;;8.27;3.22;;;16.20;95.60;;;;;;4182192;28;20698;-84
2022/06/17 05:22:21;;;;;;;4.88;2.70;;;16.20;95.20;;;;;;4182171;28;20489;-84
2022/06/17 05:24:22;;;;;;;5.03;2.72;;;16.20;95.20;;;;;;4182224;28;20463;-84
2022/06/17 05:26:24;;;;;;;7.35;2.78;;;16.20;95.10;;;;;;4182262;28;20116;-84
2022/06/17 05:28:26;;;;;;;5.72;3.13;;;16.30;95.10;;;;;;4182162;28;20541;-84
2022/06/17 05:30:31;;;;;;;8.07;2.72;;;16.30;95.10;;;;;;4182330;28;20048;-83
2022/06/17 05:32:32;;;;;;;6.78;3.20;;;16.30;94.90;;;;;;4182442;28;20053;-85
2022/06/17 05:34:33;;;;;;;6.40;3.72;;;16.30;94.80;;;;;;4185013;28;20066;-85
2022/06/17 05:36:34;;;;;;;6.00;3.45;;;16.30;94.80;;;;;;4186889;28;20484;-84
2022/06/17 05:38:34;;;;;;;6.60;3.40;;;16.30;94.60;;;;;;4198330;28;20048;-84
2022/06/17 05:40:37;;;;;;;6.80;3.30;;;16.40;94.60;;;;;;4193267;28;20498;-85
2022/06/17 05:42:39;;;;;;;8.23;3.28;;;16.40;94.50;;;;;;4181711;28;20079;-84
2022/06/17 05:44:40;;;;;;;10.23;3.47;;;16.50;94.40;;;;;;4182054;28;20045;-85
2022/06/17 05:46:43;;;;;;;8.07;3.17;;;16.50;94.30;;;;;;4182140;28;20041;-85
2022/06/17 05:48:44;;;;;;;7.90;3.22;;;16.50;94.20;;;;;;4182152;28;20477;-85
2022/06/17 05:50:44;;;;;;;6.80;3.33;;;16.60;94.30;;;;;;4181721;28;20049;-84
2022/06/17 05:53:06;;;;;;;8.68;3.30;;;16.60;94.20;;;;;;4186127;28;20048;-84
2022/06/17 05:55:09;;;;;;;8.30;3.38;;;16.60;94.30;;;;;;4196591;28;20101;-85
2022/06/17 05:57:10;;;;;;;8.57;3.35;;;16.70;94.20;;;;;;4198196;28;20378;-84
2022/06/17 05:59:11;;;;;;;9.52;3.30;;;16.70;94.50;;;;;;4197999;28;20045;-84
2022/06/17 06:01:12;;;;;;;5.68;3.90;;;16.80;94.10;;;;;;4198371;28;20044;-85
2022/06/17 06:03:24;;;;;;;5.60;3.38;;;16.80;94.00;;;;;;4198134;28;20044;-84
2022/06/17 06:05:27;;;;;;;8.25;3.70;;;16.80;94.10;;;;;;4198272;28;20045;-84
2022/06/17 06:07:28;;;;;;;9.88;3.65;;;16.90;94.10;;;;;;4197943;28;20489;-84
2022/06/17 06:09:28;;;;;;;7.90;3.38;;;16.90;94.10;;;;;;4197903;28;20041;-85
2022/06/17 06:11:29;;;;;;;7.60;3.55;;;16.90;94.10;;;;;;4198226;28;20507;-85
2022/06/17 06:13:30;;;;;;;10.45;3.10;;;17.00;93.90;;;;;;4197410;28;20044;-85
2022/06/17 06:15:39;;;;;;;9.48;3.35;;;17.00;94.40;;;;;;4197628;28;20055;-85
2022/06/17 06:17:43;;;;;;;8.93;3.35;;;17.00;94.30;;;;;;4197957;28;20059;-84
2022/06/17 06:19:44;;;;;;;11.57;3.50;;;17.10;94.10;;;;;;4196346;28;20485;-84
2022/06/17 06:21:44;;;;;;;9.90;3.28;;;17.10;94.00;;;;;;4197547;28;20147;-84
2022/06/17 06:23:46;;;;;;;5.20;3.08;;;17.10;94.00;;;;;;4198211;28;20052;-84
2022/06/17 06:25:47;;;;;;;9.63;3.72;;;17.10;93.90;;;;;;4198808;28;20052;-84
2022/06/17 06:27:48;;;;;;;7.45;3.20;;;17.20;93.90;;;;;;4200532;28;20056;-85
2022/06/17 06:29:48;;;;;;;9.43;3.72;;;17.20;93.90;;;;;;4202491;28;20051;-85
2022/06/17 06:31:49;;;;;;;8.32;3.53;;;17.20;93.80;;;;;;4203610;28;20067;-85
2022/06/17 06:33:50;;;;;;;5.93;3.60;;;17.30;93.80;;;;;;4201642;28;20046;-85
2022/06/17 06:35:51;;;;;;;6.38;3.55;;;17.30;93.70;;;;;;4199798;28;20037;-84
2022/06/17 06:37:52;;;;;;;5.25;2.97;;;17.40;93.70;;;;;;4196324;28;20132;-85
2022/06/17 06:39:53;;;;;;;9.63;4.43;;;17.40;93.60;;;;;;4183698;28;20049;-85
2022/06/17 06:41:54;;;;;;;8.80;3.60;;;;;;;;;;4182032;28;20133;-84
2022/06/17 06:43:55;;;;;;;8.45;3.28;;;;;;;;;;4180404;28;20449;-85
2022/06/17 06:45:56;;;;;;;10.25;3.92;;;17.50;93.50;;;;;;4196896;28;20043;-84
2022/06/17 06:47:59;;;;;;;9.32;3.45;;;17.70;93.00;;;;;;4181179;28;20044;-85
2022/06/17 06:50:00;;;;;;;7.35;3.40;;;17.70;92.90;;;;;;4181332;28;20128;-83
2022/06/17 06:52:00;;;;;;;9.48;3.15;;;17.80;92.70;;;;;;4183822;28;20045;-85
2022/06/17 06:54:01;;;;;;;8.88;3.60;;;17.90;92.70;;;;;;4183410;28;20060;-85
2022/06/17 06:56:03;;;;;;;6.07;3.10;;;;;;;;;;4197071;28;20040;-84
2022/06/17 06:58:14;;;;;;;8.18;3.40;;;18.00;92.50;;;;;;4196407;28;20582;-84
2022/06/17 07:00:26;;;;;;;11.02;3.80;;;18.20;92.00;;;;;;4197280;28;20443;-85
2022/06/17 07:02:27;;;;;;;13.45;3.85;;;18.20;91.90;;;;;;4197476;28;20076;-84
2022/06/17 07:04:27;;;;;;;7.80;3.70;;;18.30;91.80;;;;;;4197491;28;20041;-85
2022/06/17 07:06:28;;;;;;;9.35;3.05;;;18.40;91.60;;;;;;4196270;28;20049;-85
2022/06/17 07:08:32;;;;;;;8.25;3.42;;;18.50;91.40;;;;;;4197448;28;20540;-85
2022/06/17 07:10:35;;;;;;;5.03;3.30;;;18.50;91.30;;;;;;4197362;28;20510;-84
2022/06/17 07:12:36;;;;;;;7.40;3.40;;;18.50;91.20;;;;;;4197403;28;20605;-85
2022/06/17 07:14:36;;;;;;;8.73;3.05;;;18.60;91.20;;;;;;4197289;28;20052;-84
2022/06/17 07:16:37;;;;;;;6.70;3.38;;;18.60;91.00;;;;;;4196035;28;20132;-84
2022/06/17 07:18:39;;;;;;;10.68;3.25;;;18.60;90.90;;;;;;4197464;28;20541;-84
2022/06/17 07:20:45;;;;;;;8.88;3.22;;;18.60;90.90;;;;;;4196422;28;20045;-84
2022/06/17 07:22:46;;;;;;;8.63;3.30;;;18.60;90.90;;;;;;4179602;28;20095;-85
2022/06/17 07:24:48;;;;;;;6.90;3.85;;;18.70;90.80;;;;;;4196141;28;20053;-84
2022/06/17 07:26:49;;;;;;;8.18;3.38;;;18.70;91.00;;;;;;4179197;28;20115;-84
2022/06/17 07:28:52;;;;;;;7.88;2.92;;;18.70;90.70;;;;;;4196422;28;20535;-84
2022/06/17 07:30:54;;;;;;;3.50;2.63;;;18.80;90.70;;;;;;4194767;28;20052;-84
2022/06/17 07:32:55;;;;;;;9.80;3.10;;;18.90;90.60;;;;;;4184415;28;20045;-85
2022/06/17 07:34:56;;;;;;;5.47;2.88;;;18.90;90.50;;;;;;4184325;28;20045;-84
2022/06/17 07:41:37;;;;;;;6.05;3.53;;;19.10;90.40;;;;;;4192333;28;20080;-84
2022/06/17 07:43:39;;;;;;;5.10;3.08;;;19.20;90.30;;;;;;4179280;28;20057;-85
2022/06/17 07:45:40;;;;;;;5.10;3.03;;;19.30;90.00;;;;;;4197675;28;20052;-84
2022/06/17 07:47:42;;;;;;;5.40;3.28;;;19.40;90.00;;;;;;4182974;28;20565;-85
2022/06/17 07:49:43;;;;;;;6.78;3.30;;;19.50;89.70;;;;;;4184324;28;20053;-84
2022/06/17 07:51:44;;;;;;;5.15;2.90;;;;;;;;;;4184240;28;20079;-85
2022/06/17 07:53:45;;;;;;;5.28;3.28;;;;;;;;;;4184248;28;20530;-85
2022/06/17 07:55:46;;;;;;;5.57;2.80;;;;;;;;;;4182625;28;20088;-85
2022/06/17 07:57:48;;;;;;;8.63;3.90;;;;;;;;;;4187735;28;20117;-84
2022/06/17 07:59:49;;;;;;;12.75;4.07;;;;;;;;;;4200136;28;20129;-83
2022/06/17 08:01:50;;;;;;;7.82;3.50;;;;;;;;;;4200394;28;20048;-84
2022/06/17 08:03:51;;;;;;;4.95;3.08;;;;;;;;;;4199044;28;20068;-84
2022/06/17 08:05:53;;;;;;;19.00;6.05;;;;;;;;;;4193198;28;20079;-84
2022/06/17 08:07:55;;;;;;;6.60;3.53;;;;;;;;;;4184325;28;20481;-86
2022/06/17 08:09:57;;;;;;;6.93;3.03;;;;;;;;;;4184024;28;20063;-84
2022/06/17 08:11:59;;;;;;;9.38;2.75;;;19.70;89.40;;;;;;4186689;28;20114;-83
2022/06/17 08:14:00;;;;;;;5.03;2.97;;;20.70;83.80;;;;;;4185893;28;20036;-84
2022/06/17 08:16:02;;;;;;;4.88;2.70;;;;;;;;;;4190267;28;20049;-87
2022/06/17 08:18:04;;;;;;;4.38;3.00;;;;;;;;;;4198880;28;20049;-83
2022/06/17 08:20:09;;;;;;;8.05;2.70;;;;;;;;;;4200239;28;20110;-84
2022/06/17 08:22:11;;;;;;;6.72;2.97;;;20.70;84.10;;;;;;4199863;28;20098;-84
2022/06/17 08:24:12;;;;;;;6.90;3.38;;;20.90;84.20;;;;;;4182335;28;20049;-85
2022/06/17 08:26:13;;;;;;;6.47;3.10;;;21.00;83.10;;;;;;4193683;28;20033;-85
2022/06/17 08:28:15;;;;;;;10.20;2.80;;;21.10;82.50;;;;;;4193583;28;20052;-85
2022/06/17 08:30:18;;;;;;;6.38;3.00;;;21.20;82.20;;;;;;4198346;28;20053;-85
2022/06/17 08:34:38;;;;;;;5.35;3.33;;;21.40;80.90;;;;;;4183060;28;20044;-84
2022/06/17 08:36:40;;;;;;;8.35;3.28;;;21.40;80.60;;;;;;4182198;28;20049;-84
2022/06/17 08:38:46;;;;;;;6.38;3.45;;;21.40;80.00;;;;;;4180729;28;20378;-85
2022/06/17 08:40:52;;;;;;;5.80;2.75;;;21.40;79.00;;;;;;4181793;28;20521;-84
2022/06/17 08:43:33;;;;;;;5.85;3.10;;;21.50;79.90;;;;;;4182249;28;20124;-85
2022/06/17 08:46:02;;;;;;;5.03;3.17;;;21.60;80.10;;;;;;4158466;28;20107;-85
2022/06/17 08:48:16;;;;;;;5.60;2.85;;;21.70;78.40;;;;;;4182797;28;20077;-86
2022/06/17 08:50:30;;;;;;;5.43;3.38;;;21.70;77.50;;;;;;4180741;28;20049;-86
2022/06/17 08:52:52;;;;;;;5.45;2.90;;;21.70;79.00;;;;;;4181646;28;20055;-85
2022/06/17 08:55:08;;;;;;;10.23;3.33;;;21.70;79.80;;;;;;4181345;28;20440;-85
2022/06/17 08:57:11;;;;;;;6.80;3.13;;;21.70;79.50;;;;;;4182697;28;20076;-86
2022/06/17 08:59:30;;;;;;;8.90;3.28;;;21.70;79.40;;;;;;4182632;28;20045;-85
2022/06/17 09:01:52;;;;;;;4.72;3.13;;;21.70;78.70;;;;;;4182388;28;20040;-85
2022/06/17 09:04:20;;;;;;;8.20;2.97;;;21.70;79.20;;;;;;4182608;28;20110;-85
2022/06/17 09:06:54;;;;;;;6.85;3.42;;;21.70;78.60;;;;;;4182495;28;20080;-85
2022/06/17 09:09:07;;;;;;;7.90;3.28;;;21.90;77.50;;;;;;4164705;28;20460;-85
2022/06/17 09:11:11;;;;;;;7.03;3.55;;;21.60;78.40;;;;;;4182451;28;20048;-85
2022/06/17 09:13:32;;;;;;;8.85;3.65;;;21.70;78.70;;;;;;4182327;28;20064;-85
2022/06/17 09:15:58;;;;;;;11.43;3.80;;;21.70;78.00;;;;;;4181761;28;20140;-85
2022/06/17 09:18:22;;;;;;;5.68;3.17;;;21.70;77.90;;;;;;4182218;28;20048;-86
2022/06/17 09:20:34;;;;;;;9.35;3.75;;;21.80;77.00;;;;;;4182302;28;20543;-85
2022/06/17 09:22:40;;;;;;;11.93;4.05;;;21.80;76.40;;;;;;4182231;28;20045;-85
2022/06/17 09:24:43;;;;;;;8.25;4.03;;;21.80;76.80;;;;;;4182250;28;20049;-85
2022/06/17 09:27:19;;;;;;;8.15;3.95;;;21.80;77.50;;;;;;4180390;28;20049;-85
2022/06/17 09:29:28;;;;;;;11.80;3.72;;;21.80;76.60;;;;;;4174953;28;20053;-85
2022/06/17 09:31:37;;;;;;;6.40;3.47;;;21.90;77.10;;;;;;4182110;28;20041;-85
2022/06/17 09:33:55;;;;;;;10.98;3.92;;;22.00;77.00;;;;;;4182068;28;20073;-85
2022/06/17 09:36:03;;;;;;;11.70;4.47;;;22.00;77.30;;;;;;4180725;28;20077;-85
2022/06/17 09:38:25;;;;;;;7.50;3.47;;;22.00;76.80;;;;;;4164171;28;20057;-85
2022/06/17 09:40:35;;;;;;;5.25;2.90;;;22.20;77.20;;;;;;4181488;28;20053;-85
2022/06/17 09:42:47;;;;;;;6.65;3.67;;;22.60;77.00;;;;;;4181631;28;20114;-84
2022/06/17 09:44:54;;;;;;;8.98;3.50;;;23.10;76.20;;;;;;4181750;28;20080;-85
2022/06/17 09:47:07;;;;;;;8.30;3.78;;;23.30;74.20;;;;;;4181845;28;20048;-85
2022/06/17 09:49:21;;;;;;;7.93;3.42;;;23.40;71.80;;;;;;4181528;28;20049;-85
2022/06/17 09:51:37;;;;;;;6.70;3.13;;;23.50;70.60;;;;;;4181819;28;20088;-85
2022/06/17 09:53:51;;;;;;;6.93;3.35;;;23.60;71.20;;;;;;4181827;28;20041;-85
2022/06/17 09:56:05;;;;;;;9.63;3.85;;;23.60;69.60;;;;;;4180080;28;20080;-85
2022/06/17 09:58:21;;;;;;;8.95;2.97;;;23.50;69.70;;;;;;4181800;28;20041;-85
2022/06/17 10:00:25;;;;;;;5.57;3.53;;;23.50;69.40;;;;;;4181335;28;20048;-85
2022/06/17 10:02:36;;;;;;;7.50;3.08;;;23.40;71.10;;;;;;4181737;28;20116;-86
2022/06/17 10:04:37;;;;;;;7.68;3.42;;;23.30;68.90;;;;;;4182116;28;20080;-86
2022/06/17 10:07:05;;;;;;;7.63;4.15;;;23.20;70.70;;;;;;4181700;28;20045;-85
2022/06/17 10:09:26;;;;;;;3.72;2.85;;;23.10;70.60;;;;;;4181076;28;20032;-85
2022/06/17 10:11:48;;;;;;;6.18;3.40;;;23.10;71.10;;;;;;4181419;28;20045;-85
2022/06/17 10:14:03;;;;;;;8.05;2.90;;;23.10;70.40;;;;;;4181471;28;20485;-85
2022/06/17 10:19:50;;;;;;;7.55;3.15;;;23.00;71.00;;;;;;4143648;28;20601;-85
2022/06/17 10:22:29;;;;;;;7.53;2.83;;;23.00;70.70;;;;;;4179382;28;20067;-85
2022/06/17 10:24:51;;;;;;;7.03;2.90;;;22.90;70.20;;;;;;4149550;28;20080;-86
2022/06/17 10:27:18;;;;;;;6.75;3.10;;;22.90;71.00;;;;;;4181012;28;20123;-85
2022/06/17 10:29:40;;;;;;;4.60;3.17;;;22.90;70.20;;;;;;4165128;28;20045;-85
2022/06/17 10:31:48;;;;;;;5.40;2.67;;;22.90;71.80;;;;;;4180626;28;20489;-85
2022/06/17 10:33:49;;;;;;;7.90;3.58;;;22.90;70.60;;;;;;4181065;28;20496;-86
2022/06/17 10:35:50;;;;;;;5.93;2.65;;;22.90;71.00;;;;;;4180913;28;20067;-85
2022/06/17 10:37:51;;;;;;;7.03;1.98;;;22.90;71.10;;;;;;4181016;28;20045;-86
2022/06/17 10:39:53;;;;;;;5.07;2.30;;;22.90;70.50;;;;;;4180926;28;20387;-86
2022/06/17 10:41:56;;;;;;;6.40;2.50;;;23.00;70.80;;;;;;4180816;28;20498;-86
2022/06/17 10:43:57;;;;;;;5.90;2.42;;;23.00;70.50;;;;;;4182928;28;20090;-84
2022/06/17 10:45:58;;;;;;;7.63;3.15;;;23.10;70.00;;;;;;4179602;28;20505;-84
2022/06/17 10:48:13;;;;;;;5.07;2.88;;;23.20;70.40;;;;;;4179444;28;20067;-85
2022/06/17 10:50:19;;;;;;;6.00;3.05;;;23.20;70.10;;;;;;4181056;28;20056;-85
2022/06/17 10:52:26;;;;;;;9.75;2.47;;;23.40;69.80;;;;;;4180303;28;20048;-85
2022/06/17 10:54:34;;;;;;;3.72;2.55;;;23.60;68.40;;;;;;4181055;28;20051;-85
2022/06/17 10:56:41;;;;;;;3.78;2.65;;;23.70;68.50;;;;;;4179643;28;20080;-86
2022/06/17 10:58:59;;;;;;;4.45;2.80;;;23.80;67.70;;;;;;4180895;28;20397;-85
2022/06/17 11:01:01;;;;;;;11.10;2.78;;;23.90;68.10;;;;;;4180731;28;20116;-85
2022/06/17 11:03:22;;;;;;;6.63;2.58;;;24.00;68.00;;;;;;4180558;28;20053;-85
2022/06/17 11:05:31;;;;;;;4.05;2.50;;;24.00;65.40;;;;;;4180765;28;20118;-85
2022/06/17 11:07:37;;;;;;;4.03;2.17;;;24.20;67.90;;;;;;4178306;28;20041;-85
2022/06/17 11:09:39;;;;;;;4.65;2.42;;;24.40;67.90;;;;;;4180533;28;20127;-86
2022/06/17 11:14:01;;;;;;;5.75;2.85;;;;;;;;;;4180461;28;20045;-85
2022/06/17 11:16:02;;;;;;;5.13;2.45;;;;;;;;;;4179561;28;20053;-85
2022/06/17 11:18:06;;;;;;;3.92;2.30;;;;;;;;;;4180548;28;20057;-85